createdAt,value
2018-03-27T00:02:11.921Z,6.05
2018-03-27T00:04:39.760Z,6.06
2018-03-27T00:07:07.437Z,6.07
2018-03-27T00:09:35.089Z,6.09
2018-03-27T00:12:02.974Z,6.08
2018-03-27T00:14:30.658Z,6.09
2018-03-27T00:16:58.254Z,6.11
2018-03-27T00:19:25.833Z,6.10
2018-03-27T00:21:54.112Z,6.11
2018-03-27T00:24:21.706Z,6.12
2018-03-27T00:27:01.218Z,6.13
2018-03-27T00:29:40.512Z,6.14
2018-03-27T00:32:19.918Z,6.15
2018-03-27T00:34:59.287Z,6.15
2018-03-27T00:37:38.877Z,6.15
2018-03-27T00:40:18.428Z,6.13
2018-03-27T00:42:51.956Z,6.12
2018-03-27T00:45:19.853Z,6.12
2018-03-27T00:47:47.522Z,6.12
2018-03-27T00:50:15.320Z,6.09
2018-03-27T00:52:42.969Z,6.07
2018-03-27T00:55:10.695Z,6.06
2018-03-27T00:57:38.599Z,6.06
2018-03-27T01:00:06.470Z,6.09
2018-03-27T01:02:34.297Z,6.08
2018-03-27T01:05:07.463Z,6.06
2018-03-27T01:07:35.086Z,6.03
2018-03-27T01:10:02.686Z,6.02
2018-03-27T01:12:30.354Z,6.01
2018-03-27T01:14:58.739Z,6.00
2018-03-27T01:17:26.415Z,5.96
2018-03-27T01:19:54.374Z,5.94
2018-03-27T01:22:22.039Z,5.87
2018-03-27T01:24:49.759Z,5.81
2018-03-27T01:27:17.633Z,5.78
2018-03-27T01:29:45.544Z,5.78
2018-03-27T01:32:13.142Z,5.77
2018-03-27T01:34:40.728Z,5.78
2018-03-27T01:37:09.263Z,5.79
2018-03-27T01:39:36.911Z,5.80
2018-03-27T01:42:04.500Z,5.82
2018-03-27T01:44:32.171Z,5.82
2018-03-27T01:47:00.158Z,5.81
2018-03-27T01:49:27.873Z,5.79
2018-03-27T01:51:56.081Z,5.78
2018-03-27T01:54:23.883Z,5.78
2018-03-27T01:56:51.571Z,5.79
2018-03-27T01:59:19.646Z,5.79
2018-03-27T02:01:47.307Z,5.79
2018-03-27T02:04:15.042Z,5.80
2018-03-27T02:06:43.056Z,5.80
2018-03-27T02:09:10.817Z,5.81
2018-03-27T02:11:44.216Z,5.81
2018-03-27T02:14:17.837Z,5.81
2018-03-27T02:16:51.304Z,5.81
2018-03-27T02:19:24.634Z,5.81
2018-03-27T02:21:52.190Z,5.81
2018-03-27T02:24:20.416Z,5.82
2018-03-27T02:26:48.142Z,5.81
2018-03-27T02:29:15.867Z,5.80
2018-03-27T02:31:44.122Z,5.80
2018-03-27T02:34:11.873Z,5.79
2018-03-27T02:36:39.493Z,5.80
2018-03-27T02:39:07.220Z,5.79
2018-03-27T02:41:34.860Z,5.80
2018-03-27T02:44:02.469Z,5.79
2018-03-27T02:46:30.210Z,5.78
2018-03-27T02:48:58.071Z,5.78
2018-03-27T02:51:26.602Z,5.76
2018-03-27T02:53:54.454Z,5.75
2018-03-27T02:56:22.119Z,5.74
2018-03-27T02:58:49.775Z,5.73
2018-03-27T03:01:17.417Z,5.73
2018-03-27T03:03:45.199Z,5.72
2018-03-27T03:06:12.886Z,5.71
2018-03-27T03:08:40.877Z,5.69
2018-03-27T03:11:08.532Z,5.68
2018-03-27T03:13:36.261Z,5.67
2018-03-27T03:16:03.879Z,5.67
2018-03-27T03:18:31.488Z,5.67
2018-03-27T03:20:59.167Z,5.65
2018-03-27T03:23:26.946Z,5.64
2018-03-27T03:25:54.525Z,5.62
2018-03-27T03:28:22.232Z,5.60
2018-03-27T03:30:49.854Z,5.56
2018-03-27T03:33:17.481Z,5.52
2018-03-27T03:35:45.708Z,5.51
2018-03-27T03:38:13.303Z,5.47
2018-03-27T03:40:40.965Z,5.40
2018-03-27T03:43:08.599Z,5.36
2018-03-27T03:45:36.271Z,5.36
2018-03-27T03:48:03.932Z,5.36
2018-03-27T03:50:31.555Z,5.37
2018-03-27T03:52:59.136Z,5.36
2018-03-27T03:55:26.841Z,5.35
2018-03-27T03:57:54.439Z,5.35
2018-03-27T04:00:22.143Z,5.36
2018-03-27T04:02:49.737Z,5.38
2018-03-27T04:05:17.599Z,5.41
2018-03-27T04:07:45.248Z,5.41
2018-03-27T04:10:13.295Z,5.43
2018-03-27T04:12:40.945Z,5.43
2018-03-27T04:15:08.557Z,5.42
2018-03-27T04:17:36.196Z,5.42
2018-03-27T04:20:03.779Z,5.43
2018-03-27T04:22:31.439Z,5.43
2018-03-27T04:24:59.053Z,5.44
2018-03-27T04:27:26.744Z,5.42
2018-03-27T04:29:54.379Z,5.40
2018-03-27T04:32:22.007Z,5.38
2018-03-27T04:34:49.605Z,5.36
2018-03-27T04:37:17.229Z,5.35
2018-03-27T04:39:44.865Z,5.35
2018-03-27T04:42:12.549Z,5.35
2018-03-27T04:44:40.177Z,5.31
2018-03-27T04:47:07.788Z,5.31
2018-03-27T04:49:35.411Z,5.28
2018-03-27T04:52:03.003Z,5.28
2018-03-27T04:54:30.667Z,5.26
2018-03-27T04:56:58.302Z,5.22
2018-03-27T04:59:25.902Z,5.19
2018-03-27T05:01:53.529Z,5.17
2018-03-27T05:04:21.113Z,5.17
2018-03-27T05:06:48.746Z,5.17
2018-03-27T05:09:16.337Z,5.16
2018-03-27T05:11:44.254Z,5.14
2018-03-27T05:14:12.147Z,5.14
2018-03-27T05:16:39.914Z,5.09
2018-03-27T05:19:07.504Z,5.05
2018-03-27T05:21:35.169Z,5.04
2018-03-27T05:24:02.745Z,5.04
2018-03-27T05:26:30.415Z,5.04
2018-03-27T05:28:58.068Z,5.02
2018-03-27T05:31:25.842Z,5.05
2018-03-27T05:33:53.664Z,5.06
2018-03-27T05:36:21.551Z,5.06
2018-03-27T05:38:49.384Z,5.06
2018-03-27T05:41:17.378Z,5.06
2018-03-27T05:43:45.247Z,5.09
2018-03-27T05:46:15.047Z,5.10
2018-03-27T05:48:42.647Z,5.10
2018-03-27T05:51:10.325Z,5.12
2018-03-27T05:53:38.010Z,5.09
2018-03-27T05:56:05.645Z,5.08
2018-03-27T05:58:33.381Z,5.11
2018-03-27T06:01:01.032Z,5.10
2018-03-27T06:03:28.629Z,5.07
2018-03-27T06:05:56.412Z,5.04
2018-03-27T06:08:24.091Z,5.02
2018-03-27T06:10:51.674Z,5.01
2018-03-27T06:13:19.641Z,4.99
2018-03-27T06:15:48.403Z,4.97
2018-03-27T06:18:16.047Z,4.92
2018-03-27T06:20:43.697Z,4.91
2018-03-27T06:23:11.354Z,4.94
2018-03-27T06:25:39.370Z,4.97
2018-03-27T06:28:06.958Z,4.97
2018-03-27T06:30:34.595Z,5.00
2018-03-27T06:33:02.563Z,5.01
2018-03-27T06:35:30.280Z,4.98
2018-03-27T06:37:57.956Z,4.98
2018-03-27T06:40:26.943Z,4.95
2018-03-27T06:42:54.861Z,4.86
2018-03-27T06:45:22.457Z,4.85
2018-03-27T06:47:50.067Z,4.85
2018-03-27T06:50:17.655Z,4.84
2018-03-27T06:52:45.368Z,4.82
2018-03-27T06:55:13.121Z,4.80
2018-03-27T06:57:40.972Z,4.83
2018-03-27T07:00:08.618Z,4.85
2018-03-27T07:02:36.348Z,4.82
2018-03-27T07:05:04.328Z,4.80
2018-03-27T07:07:32.002Z,4.86
2018-03-27T07:09:59.960Z,4.88
2018-03-27T07:12:27.674Z,4.86
2018-03-27T07:14:55.878Z,4.90
2018-03-27T07:17:23.516Z,4.94
2018-03-27T07:19:51.220Z,5.02
2018-03-27T07:22:18.904Z,5.02
2018-03-27T07:24:46.533Z,5.07
2018-03-27T07:27:14.313Z,5.11
2018-03-27T07:29:42.290Z,5.19
2018-03-27T07:32:13.297Z,5.24
2018-03-27T07:34:40.955Z,5.25
2018-03-27T07:37:08.546Z,5.33
2018-03-27T07:39:36.159Z,5.39
2018-03-27T07:42:03.808Z,5.41
2018-03-27T07:44:31.414Z,5.40
2018-03-27T07:46:59.014Z,5.40
2018-03-27T07:49:26.629Z,5.38
2018-03-27T07:51:54.353Z,5.40
2018-03-27T07:54:21.952Z,5.44
2018-03-27T07:56:49.554Z,5.48
2018-03-27T07:59:17.206Z,5.48
2018-03-27T08:01:44.877Z,5.53
2018-03-27T08:04:12.482Z,5.66
2018-03-27T08:06:40.170Z,5.85
2018-03-27T08:09:07.750Z,6.09
2018-03-27T08:11:35.397Z,6.20
2018-03-27T08:14:02.988Z,6.26
2018-03-27T08:16:30.588Z,6.29
2018-03-27T08:18:58.209Z,6.42
2018-03-27T08:21:25.963Z,6.54
2018-03-27T08:23:53.657Z,6.66
2018-03-27T08:26:21.234Z,6.82
2018-03-27T08:28:48.866Z,6.96
2018-03-27T08:31:16.462Z,7.13
2018-03-27T08:33:44.113Z,7.23
2018-03-27T08:36:12.103Z,7.27
2018-03-27T08:38:39.652Z,7.27
2018-03-27T08:41:07.255Z,7.35
2018-03-27T08:43:35.018Z,7.54
2018-03-27T08:46:02.645Z,7.72
2018-03-27T08:48:30.332Z,7.84
2018-03-27T08:50:58.290Z,7.81
2018-03-27T08:53:25.895Z,7.74
2018-03-27T08:55:53.573Z,7.77
2018-03-27T08:58:21.252Z,7.83
2018-03-27T09:00:48.881Z,7.86
2018-03-27T09:03:16.891Z,7.91
2018-03-27T09:05:44.495Z,7.97
2018-03-27T09:08:12.116Z,8.09
2018-03-27T09:10:39.844Z,8.22
2018-03-27T09:13:07.510Z,8.40
2018-03-27T09:15:35.104Z,8.58
2018-03-27T09:18:02.762Z,8.83
2018-03-27T09:20:30.376Z,8.95
2018-03-27T09:22:57.986Z,8.96
2018-03-27T09:25:25.654Z,9.05
2018-03-27T09:27:53.312Z,9.17
2018-03-27T09:30:20.903Z,9.27
2018-03-27T09:32:48.558Z,9.24
2018-03-27T09:35:16.231Z,9.24
2018-03-27T09:37:43.905Z,9.31
2018-03-27T09:40:11.545Z,9.34
2018-03-27T09:42:39.527Z,9.44
2018-03-27T09:45:07.112Z,9.61
2018-03-27T09:47:35.130Z,9.79
2018-03-27T09:50:02.736Z,9.86
2018-03-27T09:52:30.341Z,9.90
2018-03-27T09:54:58.234Z,9.97
2018-03-27T09:57:25.847Z,10.06
2018-03-27T09:59:53.468Z,10.14
2018-03-27T10:02:21.530Z,10.20
2018-03-27T10:04:49.121Z,10.19
2018-03-27T10:07:16.726Z,10.36
2018-03-27T10:09:44.384Z,10.50
2018-03-27T10:12:12.010Z,10.56
2018-03-27T10:14:39.681Z,10.67
2018-03-27T10:17:07.303Z,10.73
2018-03-27T10:19:35.281Z,11.00
2018-03-27T10:22:02.892Z,11.11
2018-03-27T10:24:30.560Z,11.21
2018-03-27T10:26:58.269Z,11.40
2018-03-27T10:29:25.858Z,11.61
2018-03-27T10:31:53.547Z,11.82
2018-03-27T10:34:21.487Z,11.84
2018-03-27T10:36:49.165Z,11.81
2018-03-27T10:39:17.092Z,11.71
2018-03-27T10:41:44.797Z,11.65
2018-03-27T10:44:12.465Z,11.70
2018-03-27T10:46:40.088Z,11.76
2018-03-27T10:49:07.703Z,11.78
2018-03-27T10:51:35.611Z,11.81
2018-03-27T10:54:03.634Z,11.82
2018-03-27T10:56:31.289Z,11.78
2018-03-27T10:58:58.887Z,11.68
2018-03-27T11:01:26.748Z,11.74
2018-03-27T11:03:54.437Z,11.78
2018-03-27T11:06:22.128Z,11.86
2018-03-27T11:08:49.728Z,12.00
2018-03-27T11:11:17.354Z,12.14
2018-03-27T11:13:44.942Z,12.15
2018-03-27T11:16:12.948Z,12.11
2018-03-27T11:18:40.616Z,12.06
2018-03-27T11:21:08.271Z,12.01
2018-03-27T11:23:35.861Z,11.87
2018-03-27T11:26:03.813Z,11.82
2018-03-27T11:28:31.470Z,11.93
2018-03-27T11:30:59.082Z,12.11
2018-03-27T11:33:26.756Z,12.12
2018-03-27T11:35:54.368Z,12.14
2018-03-27T11:38:21.989Z,12.27
2018-03-27T11:40:49.586Z,12.40
2018-03-27T11:43:17.251Z,12.59
2018-03-27T11:45:44.854Z,12.72
2018-03-27T11:48:12.483Z,12.90
2018-03-27T11:50:40.096Z,13.14
2018-03-27T11:53:07.702Z,13.14
2018-03-27T11:55:35.408Z,13.40
2018-03-27T11:58:03.061Z,13.69
2018-03-27T12:00:30.884Z,13.91
2018-03-27T12:02:58.632Z,13.81
2018-03-27T12:05:26.274Z,13.83
2018-03-27T12:07:53.896Z,13.96
2018-03-27T12:10:21.525Z,13.94
2018-03-27T12:12:49.244Z,13.61
2018-03-27T12:15:16.856Z,13.59
2018-03-27T12:17:44.459Z,13.48
2018-03-27T12:20:12.451Z,13.42
2018-03-27T12:22:40.107Z,13.47
2018-03-27T12:25:07.782Z,13.36
2018-03-27T12:27:35.485Z,13.14
2018-03-27T12:30:03.439Z,13.07
2018-03-27T12:32:31.082Z,13.03
2018-03-27T12:34:59.046Z,13.00
2018-03-27T12:37:26.632Z,13.03
2018-03-27T12:39:54.227Z,12.99
2018-03-27T12:42:21.917Z,13.03
2018-03-27T12:44:49.521Z,13.01
2018-03-27T12:47:17.490Z,12.97
2018-03-27T12:49:45.156Z,13.14
2018-03-27T12:52:12.758Z,13.24
2018-03-27T12:54:40.393Z,13.24
2018-03-27T12:57:08.339Z,13.24
2018-03-27T12:59:36.206Z,13.41
2018-03-27T13:02:04.347Z,13.49
2018-03-27T13:04:31.955Z,13.46
2018-03-27T13:06:59.549Z,13.52
2018-03-27T13:09:27.251Z,13.67
2018-03-27T13:11:54.853Z,13.74
2018-03-27T13:14:22.786Z,13.53
2018-03-27T13:16:50.421Z,13.42
2018-03-27T13:19:18.023Z,13.40
2018-03-27T13:21:45.644Z,13.44
2018-03-27T13:24:13.254Z,13.51
2018-03-27T13:26:40.945Z,13.48
2018-03-27T13:29:08.872Z,13.15
2018-03-27T13:31:36.524Z,12.97
2018-03-27T13:34:04.404Z,12.93
2018-03-27T13:36:32.167Z,12.86
2018-03-27T13:38:59.873Z,12.88
2018-03-27T13:41:27.449Z,12.83
2018-03-27T13:43:55.079Z,12.74
2018-03-27T13:46:22.794Z,12.77
2018-03-27T13:48:50.409Z,12.75
2018-03-27T13:51:17.996Z,12.66
2018-03-27T13:53:45.648Z,12.65
2018-03-27T13:56:13.316Z,12.64
2018-03-27T13:58:40.934Z,12.56
2018-03-27T14:01:08.553Z,12.49
2018-03-27T14:03:36.453Z,12.49
2018-03-27T14:06:04.122Z,12.35
2018-03-27T14:08:31.708Z,12.23
2018-03-27T14:10:59.345Z,12.17
2018-03-27T14:13:26.947Z,12.16
2018-03-27T14:15:54.569Z,12.12
2018-03-27T14:18:22.240Z,12.12
2018-03-27T14:20:49.894Z,12.11
2018-03-27T14:23:17.495Z,12.01
2018-03-27T14:25:45.159Z,11.93
2018-03-27T14:28:12.788Z,11.86
2018-03-27T14:30:40.378Z,11.79
2018-03-27T14:33:08.046Z,11.64
2018-03-27T14:35:35.951Z,11.62
2018-03-27T14:38:03.622Z,11.62
2018-03-27T14:40:31.232Z,11.61
2018-03-27T14:42:58.831Z,11.64
2018-03-27T14:45:26.713Z,11.67
2018-03-27T14:47:54.307Z,11.68
2018-03-27T14:50:21.907Z,11.70
2018-03-27T14:52:49.589Z,11.68
2018-03-27T14:55:17.230Z,11.59
2018-03-27T14:57:44.836Z,11.52
2018-03-27T15:00:12.501Z,11.47
2018-03-27T15:02:40.472Z,11.41
2018-03-27T15:05:08.077Z,11.34
2018-03-27T15:07:35.981Z,11.33
2018-03-27T15:10:03.594Z,11.33
2018-03-27T15:12:31.607Z,11.35
2018-03-27T15:14:59.441Z,11.36
2018-03-27T15:17:27.040Z,11.38
2018-03-27T15:19:54.662Z,11.34
2018-03-27T15:22:22.320Z,11.30
2018-03-27T15:24:49.977Z,11.28
2018-03-27T15:27:17.899Z,11.16
2018-03-27T15:29:45.571Z,11.16
2018-03-27T15:32:13.240Z,11.00
2018-03-27T15:34:40.866Z,11.00
2018-03-27T15:37:08.507Z,10.94
2018-03-27T15:39:36.161Z,10.89
2018-03-27T15:42:03.753Z,10.87
2018-03-27T15:44:31.424Z,10.89
2018-03-27T15:46:59.007Z,10.81
2018-03-27T15:49:26.600Z,10.81
2018-03-27T15:51:54.248Z,10.80
2018-03-27T15:54:21.850Z,10.65
2018-03-27T15:56:49.508Z,10.57
2018-03-27T15:59:17.470Z,10.58
2018-03-27T16:01:45.146Z,10.53
2018-03-27T16:04:12.767Z,10.49
2018-03-27T16:06:40.449Z,10.41
2018-03-27T16:09:08.055Z,10.43
2018-03-27T16:11:35.667Z,10.42
2018-03-27T16:14:03.383Z,10.38
2018-03-27T16:16:31.368Z,10.32
2018-03-27T16:18:58.977Z,10.20
2018-03-27T16:21:27.366Z,10.17
2018-03-27T16:23:55.020Z,10.08
2018-03-27T16:26:22.688Z,9.88
2018-03-27T16:28:50.271Z,9.75
2018-03-27T16:31:17.914Z,9.71
2018-03-27T16:33:45.506Z,9.70
2018-03-27T16:36:13.094Z,9.68
2018-03-27T16:38:40.792Z,9.63
2018-03-27T16:41:08.379Z,9.56
2018-03-27T16:43:35.997Z,9.51
2018-03-27T16:46:03.933Z,9.39
2018-03-27T16:48:31.540Z,9.35
2018-03-27T16:50:59.121Z,9.32
2018-03-27T16:53:27.105Z,9.31
2018-03-27T16:55:55.137Z,9.30
2018-03-27T16:58:22.722Z,9.25
2018-03-27T17:00:50.703Z,9.25
2018-03-27T17:03:18.364Z,9.26
2018-03-27T17:05:46.334Z,9.28
2018-03-27T17:08:13.983Z,9.31
2018-03-27T17:10:41.645Z,9.34
2018-03-27T17:13:09.238Z,9.37
2018-03-27T17:15:36.897Z,9.39
2018-03-27T17:18:05.103Z,9.41
2018-03-27T17:20:32.688Z,9.40
2018-03-27T17:23:00.351Z,9.37
2018-03-27T17:25:27.952Z,9.37
2018-03-27T17:27:55.604Z,9.35
2018-03-27T17:30:23.331Z,9.32
2018-03-27T17:32:54.063Z,9.30
2018-03-27T17:35:21.666Z,9.27
2018-03-27T17:37:49.473Z,9.27
2018-03-27T17:40:17.301Z,9.27
2018-03-27T17:42:45.150Z,9.22
2018-03-27T17:45:13.208Z,9.20
2018-03-27T17:47:40.798Z,9.20
2018-03-27T17:50:08.461Z,9.19
2018-03-27T17:52:36.572Z,9.12
2018-03-27T17:55:04.455Z,9.10
2018-03-27T17:57:32.037Z,9.06
2018-03-27T17:59:59.662Z,9.05
2018-03-27T18:02:27.581Z,9.05
2018-03-27T18:04:55.558Z,9.00
2018-03-27T18:07:23.154Z,8.98
2018-03-27T18:09:51.090Z,8.99
2018-03-27T18:12:18.699Z,8.94
2018-03-27T18:14:46.593Z,8.93
2018-03-27T18:17:14.169Z,8.91
2018-03-27T18:19:42.009Z,8.89
2018-03-27T18:22:09.696Z,8.86
2018-03-27T18:24:37.567Z,8.83
2018-03-27T18:27:05.158Z,8.78
2018-03-27T18:29:32.849Z,8.76
2018-03-27T18:32:00.541Z,8.73
2018-03-27T18:34:28.424Z,8.69
2018-03-27T18:36:56.021Z,8.68
2018-03-27T18:39:23.678Z,8.66
2018-03-27T18:41:51.615Z,8.62
2018-03-27T18:44:19.269Z,8.62
2018-03-27T18:46:46.952Z,8.63
2018-03-27T18:49:14.662Z,8.62
2018-03-27T18:51:42.267Z,8.61
2018-03-27T18:54:09.907Z,8.60
2018-03-27T18:56:37.902Z,8.58
2018-03-27T18:59:05.490Z,8.55
2018-03-27T19:01:33.487Z,8.51
2018-03-27T19:04:01.060Z,8.51
2018-03-27T19:06:28.968Z,8.50
2018-03-27T19:08:56.586Z,8.47
2018-03-27T19:11:24.195Z,8.47
2018-03-27T19:13:51.845Z,8.45
2018-03-27T19:16:19.497Z,8.39
2018-03-27T19:18:47.059Z,8.34
2018-03-27T19:21:14.673Z,8.29
2018-03-27T19:23:42.659Z,8.29
2018-03-27T19:26:10.290Z,8.27
2018-03-27T19:28:37.909Z,8.27
2018-03-27T19:31:05.525Z,8.23
2018-03-27T19:33:33.109Z,8.22
2018-03-27T19:36:00.973Z,8.13
2018-03-27T19:38:28.839Z,8.08
2018-03-27T19:40:56.532Z,8.06
2018-03-27T19:43:24.180Z,8.05
2018-03-27T19:45:52.124Z,8.01
2018-03-27T19:48:19.733Z,7.98
2018-03-27T19:50:47.402Z,7.97
2018-03-27T19:53:15.066Z,7.94
2018-03-27T19:55:42.659Z,7.93
2018-03-27T19:58:10.378Z,7.92
2018-03-27T20:00:38.010Z,7.89
2018-03-27T20:03:05.605Z,7.84
2018-03-27T20:05:33.327Z,7.83
2018-03-27T20:08:00.913Z,7.81
2018-03-27T20:10:28.518Z,7.81
2018-03-27T20:12:56.137Z,7.78
2018-03-27T20:15:23.859Z,7.78
2018-03-27T20:17:51.558Z,7.79
2018-03-27T20:20:19.542Z,7.76
2018-03-27T20:22:47.667Z,7.73
2018-03-27T20:25:15.254Z,7.73
2018-03-27T20:27:43.143Z,7.70
2018-03-27T20:30:11.126Z,7.70
2018-03-27T20:32:38.777Z,7.72
2018-03-27T20:35:06.914Z,7.71
2018-03-27T20:37:34.505Z,7.71
2018-03-27T20:40:02.114Z,7.70
2018-03-27T20:42:30.192Z,7.68
2018-03-27T20:44:57.852Z,7.61
2018-03-27T20:47:25.440Z,7.55
2018-03-27T20:49:53.510Z,7.51
2018-03-27T20:52:21.153Z,7.47
2018-03-27T20:54:48.754Z,7.47
2018-03-27T20:57:16.448Z,7.47
2018-03-27T20:59:44.395Z,7.45
2018-03-27T21:02:12.288Z,7.41
2018-03-27T21:04:39.902Z,7.38
2018-03-27T21:07:07.582Z,7.37
2018-03-27T21:09:35.767Z,7.38
2018-03-27T21:12:04.196Z,7.35
2018-03-27T21:14:32.235Z,7.37
2018-03-27T21:17:00.166Z,7.34
2018-03-27T21:19:28.150Z,7.36
2018-03-27T21:21:56.104Z,7.33
2018-03-27T21:24:23.694Z,7.37
2018-03-27T21:26:51.378Z,7.34
2018-03-27T21:29:19.218Z,7.34
2018-03-27T21:31:46.796Z,7.32
2018-03-27T21:34:14.472Z,7.34
2018-03-27T21:36:42.146Z,7.35
2018-03-27T21:39:09.790Z,7.35
2018-03-27T21:41:37.730Z,7.34
2018-03-27T21:44:05.306Z,7.37
2018-03-27T21:46:33.305Z,7.40
2018-03-27T21:49:00.881Z,7.35
2018-03-27T21:51:28.468Z,7.34
2018-03-27T21:53:56.185Z,7.33
2018-03-27T21:56:23.772Z,7.33
2018-03-27T21:58:51.389Z,7.28
2018-03-27T22:01:19.434Z,7.30
2018-03-27T22:03:47.068Z,7.30
2018-03-27T22:06:14.727Z,7.30
2018-03-27T22:08:42.412Z,7.29
2018-03-27T22:11:10.013Z,7.31
2018-03-27T22:13:37.599Z,7.30
2018-03-27T22:16:05.230Z,7.31
2018-03-27T22:18:32.894Z,7.29
2018-03-27T22:21:00.529Z,7.29
2018-03-27T22:23:28.197Z,7.28
2018-03-27T22:25:55.878Z,7.27
2018-03-27T22:28:24.123Z,7.27
2018-03-27T22:30:51.715Z,7.26
2018-03-27T22:33:19.297Z,7.28
2018-03-27T22:35:47.214Z,7.28
2018-03-27T22:38:14.827Z,7.30
2018-03-27T22:40:43.796Z,7.29
2018-03-27T22:43:12.315Z,7.27
2018-03-27T22:45:43.907Z,7.28
2018-03-27T22:48:11.623Z,7.32
2018-03-27T22:50:39.202Z,7.30
2018-03-27T22:53:06.805Z,7.30
2018-03-27T22:55:34.516Z,7.32
2018-03-27T22:58:02.421Z,7.35
2018-03-27T23:00:30.086Z,7.36
2018-03-27T23:02:57.680Z,7.32
2018-03-27T23:05:25.315Z,7.32
2018-03-27T23:07:52.956Z,7.32
2018-03-27T23:10:20.942Z,7.33
2018-03-27T23:12:48.633Z,7.28
2018-03-27T23:15:16.239Z,7.30
2018-03-27T23:17:43.850Z,7.33
2018-03-27T23:20:11.441Z,7.33
2018-03-27T23:22:39.361Z,7.35
2018-03-27T23:25:06.989Z,7.37
2018-03-27T23:27:34.587Z,7.34
2018-03-27T23:30:02.178Z,7.36
2018-03-27T23:32:29.887Z,7.37
2018-03-27T23:34:57.570Z,7.36
2018-03-27T23:37:25.599Z,7.37
2018-03-27T23:39:53.609Z,7.38
2018-03-27T23:42:21.209Z,7.39
2018-03-27T23:44:49.149Z,7.39
2018-03-27T23:47:16.858Z,7.39
2018-03-27T23:49:44.875Z,7.40
2018-03-27T23:52:12.522Z,7.43
2018-03-27T23:54:40.228Z,7.41
2018-03-27T23:57:07.822Z,7.42
2018-03-27T23:59:35.487Z,7.42
